Time;durP1;ratioP1;P1;durP2;ratioP2;P2;SDS_P1;SDS_P2;PMS_P1;PMS_P2;Temp;Humidity;BMP_temperature;BMP_pressure;BME280_temperature;BME280_humidity;BME280_pressure;Samples;Min_cycle;Max_cycle;Signal;HPM_P1;HPM_P2
2021/07/24 00:00:40;;;;;;;10.40;7.75;;;16.60;99.90;;;;;;5112713;28;20220;-87
2021/07/24 00:03:07;;;;;;;13.15;9.60;;;16.60;99.90;;;;;;5120516;27;20288;-87
2021/07/24 00:05:34;;;;;;;9.85;8.18;;;16.60;99.90;;;;;;5112379;28;20200;-87
2021/07/24 00:08:01;;;;;;;13.50;8.85;;;16.60;99.90;;;;;;5113119;28;20206;-88
2021/07/24 00:10:28;;;;;;;10.25;8.10;;;16.50;99.90;;;;;;5112520;28;20200;-86
2021/07/24 00:12:55;;;;;;;8.50;7.60;;;16.50;99.90;;;;;;5112298;28;20202;-86
2021/07/24 00:15:22;;;;;;;12.77;8.50;;;16.50;99.90;;;;;;5105598;27;20208;-88
2021/07/24 00:17:50;;;;;;;10.25;8.15;;;16.40;99.90;;;;;;5091821;28;20308;-86
2021/07/24 00:20:17;;;;;;;9.75;8.00;;;16.40;99.90;;;;;;5097715;28;20226;-87
2021/07/24 00:22:44;;;;;;;12.18;8.98;;;16.40;99.90;;;;;;5111810;28;20204;-86
2021/07/24 00:25:12;;;;;;;11.15;8.48;;;16.40;99.90;;;;;;5109050;28;20204;-86
2021/07/24 00:27:38;;;;;;;11.85;8.88;;;16.40;99.90;;;;;;5091603;28;20200;-87
2021/07/24 00:30:06;;;;;;;13.73;10.05;;;16.40;99.90;;;;;;5107662;27;20195;-86
2021/07/24 00:32:34;;;;;;;10.23;8.48;;;16.40;99.90;;;;;;5132919;27;20203;-86
2021/07/24 00:35:02;;;;;;;12.65;9.23;;;16.30;99.90;;;;;;5133257;27;20499;-87
2021/07/24 00:37:29;;;;;;;12.60;9.65;;;16.30;99.90;;;;;;5139111;27;20193;-87
2021/07/24 00:39:56;;;;;;;12.27;10.20;;;16.30;99.90;;;;;;5093285;28;20319;-88
2021/07/24 00:42:25;;;;;;;13.85;10.30;;;16.30;99.90;;;;;;5092963;28;20215;-88
2021/07/24 00:44:54;;;;;;;15.40;10.70;;;16.30;99.90;;;;;;5092299;28;20214;-88
2021/07/24 00:47:24;;;;;;;10.63;9.55;;;16.30;99.90;;;;;;5114267;27;20206;-87
2021/07/24 00:49:52;;;;;;;13.63;10.18;;;16.30;99.90;;;;;;5132712;27;20199;-87
2021/07/24 00:52:20;;;;;;;14.65;11.10;;;16.30;99.90;;;;;;5109929;27;20215;-89
2021/07/24 00:54:47;;;;;;;12.63;9.77;;;16.30;99.90;;;;;;5091369;28;20205;-88
2021/07/24 00:57:15;;;;;;;13.68;10.02;;;16.20;99.90;;;;;;5091058;28;20232;-86
2021/07/24 00:59:42;;;;;;;12.50;9.05;;;16.20;99.90;;;;;;5091054;28;20219;-87
2021/07/24 01:02:09;;;;;;;15.70;11.38;;;16.20;99.90;;;;;;5091349;28;20277;-87
2021/07/24 01:04:36;;;;;;;11.85;10.63;;;16.20;99.90;;;;;;5090661;28;20207;-86
2021/07/24 01:07:06;;;;;;;12.65;10.10;;;16.20;99.90;;;;;;5090392;28;20204;-90
2021/07/24 01:09:35;;;;;;;16.00;11.45;;;16.20;99.90;;;;;;5091158;28;20497;-88
2021/07/24 01:12:02;;;;;;;13.77;10.85;;;16.20;99.90;;;;;;5091254;28;20589;-87
2021/07/24 01:14:32;;;;;;;12.98;9.98;;;16.20;99.90;;;;;;5091462;28;20209;-87
2021/07/24 01:16:59;;;;;;;15.13;9.85;;;16.20;99.90;;;;;;5090279;28;20200;-87
2021/07/24 01:19:26;;;;;;;14.65;10.30;;;16.20;99.90;;;;;;5091511;28;20523;-87
2021/07/24 01:21:55;;;;;;;15.68;11.18;;;16.10;99.90;;;;;;5090733;28;20674;-88
2021/07/24 01:24:23;;;;;;;12.35;10.18;;;16.10;99.90;;;;;;5090437;22;20237;-88
2021/07/24 01:26:49;;;;;;;15.07;10.85;;;16.10;99.90;;;;;;5063979;28;20209;-89
2021/07/24 01:29:18;;;;;;;13.07;9.85;;;16.10;99.90;;;;;;5050906;28;20214;-89
2021/07/24 01:31:45;;;;;;;14.35;11.10;;;16.10;99.90;;;;;;5050039;28;20289;-88
2021/07/24 01:34:12;;;;;;;15.10;11.30;;;16.10;99.90;;;;;;5050914;28;20204;-89
2021/07/24 01:36:39;;;;;;;13.68;10.35;;;16.10;99.90;;;;;;5064172;28;20207;-90
2021/07/24 01:39:09;;;;;;;13.65;11.35;;;16.10;99.90;;;;;;5090967;28;20759;-89
2021/07/24 01:41:37;;;;;;;14.43;11.80;;;16.10;99.90;;;;;;5090223;28;20221;-88
2021/07/24 01:44:04;;;;;;;13.77;11.43;;;16.10;99.90;;;;;;5090755;28;20284;-89
2021/07/24 01:46:31;;;;;;;23.38;13.55;;;16.10;99.90;;;;;;5077459;28;20213;-89
2021/07/24 01:49:11;;;;;;;14.27;12.23;;;16.10;99.90;;;;;;5050529;28;20209;-88
2021/07/24 01:54:33;;;;;;;17.17;12.10;;;16.10;99.90;;;;;;5048391;28;20185;-89
2021/07/24 01:57:03;;;;;;;18.33;13.07;;;16.10;99.90;;;;;;5053404;28;20174;-89
2021/07/24 01:59:35;;;;;;;17.38;12.98;;;16.10;99.90;;;;;;5067180;28;20240;-89
2021/07/24 02:02:02;;;;;;;16.35;12.30;;;16.10;99.90;;;;;;5068926;28;20233;-87
2021/07/24 02:04:33;;;;;;;14.32;12.55;;;16.10;99.90;;;;;;5068078;28;20840;-89
2021/07/24 02:07:00;;;;;;;15.10;13.10;;;16.10;99.90;;;;;;5048609;28;20519;-88
2021/07/24 02:09:29;;;;;;;15.43;12.80;;;16.10;99.90;;;;;;5049282;28;20280;-87
2021/07/24 02:11:57;;;;;;;15.73;12.55;;;16.10;99.90;;;;;;5050790;28;20190;-89
2021/07/24 02:14:24;;;;;;;17.58;13.57;;;16.10;99.90;;;;;;5049783;28;20213;-90
2021/07/24 02:16:51;;;;;;;17.38;13.38;;;16.10;99.90;;;;;;5069127;28;20209;-90
2021/07/24 02:19:18;;;;;;;17.83;14.52;;;16.20;99.90;;;;;;5074749;28;20201;-89
2021/07/24 02:21:45;;;;;;;15.93;12.25;;;16.20;99.90;;;;;;5073290;28;20232;-89
2021/07/24 02:24:12;;;;;;;14.65;12.35;;;16.10;99.90;;;;;;5073007;28;20229;-88
2021/07/24 02:26:43;;;;;;;17.45;13.90;;;16.10;99.90;;;;;;5074266;28;20201;-87
2021/07/24 02:29:11;;;;;;;16.92;14.05;;;16.10;99.90;;;;;;5074190;28;20212;-86
2021/07/24 02:31:38;;;;;;;17.02;14.18;;;16.10;99.90;;;;;;5062575;28;20343;-88
2021/07/24 02:34:05;;;;;;;18.13;13.77;;;16.10;99.90;;;;;;5050938;28;20243;-89
2021/07/24 02:36:32;;;;;;;20.88;14.30;;;16.10;99.90;;;;;;5052811;28;20645;-90
2021/07/24 02:38:59;;;;;;;17.25;13.38;;;16.00;99.90;;;;;;5054010;28;20233;-90
2021/07/24 02:41:26;;;;;;;21.27;13.18;;;16.00;99.90;;;;;;5053932;28;20237;-90
2021/07/24 02:43:52;;;;;;;16.73;13.73;;;16.00;99.90;;;;;;5053663;28;20206;-90
2021/07/24 02:46:20;;;;;;;17.35;13.73;;;16.00;99.90;;;;;;5054325;28;20206;-88
2021/07/24 02:48:47;;;;;;;16.23;12.52;;;16.00;99.90;;;;;;5052770;28;20637;-90
2021/07/24 02:51:15;;;;;;;19.30;15.02;;;16.00;99.90;;;;;;5053113;28;20860;-88
2021/07/24 02:53:42;;;;;;;19.70;14.15;;;16.00;99.90;;;;;;5053438;28;20707;-90
2021/07/24 02:56:09;;;;;;;20.42;14.88;;;16.00;99.90;;;;;;5052213;28;20201;-90
2021/07/24 02:58:37;;;;;;;20.15;15.05;;;16.00;99.90;;;;;;5048177;28;20201;-88
2021/07/24 03:01:07;;;;;;;18.13;14.65;;;16.00;99.90;;;;;;5050715;28;20388;-87
2021/07/24 03:03:36;;;;;;;18.33;14.35;;;16.00;99.90;;;;;;5060852;28;20193;-88
2021/07/24 03:06:03;;;;;;;17.70;14.20;;;16.00;99.90;;;;;;5071705;28;20189;-90
2021/07/24 03:08:30;;;;;;;17.50;13.27;;;16.00;99.90;;;;;;5053441;28;20220;-90
2021/07/24 03:10:56;;;;;;;18.02;14.25;;;16.00;99.90;;;;;;5051769;28;20198;-88
2021/07/24 03:13:24;;;;;;;20.50;14.65;;;16.00;99.90;;;;;;5053112;28;20206;-87
2021/07/24 03:15:50;;;;;;;20.67;14.82;;;16.00;99.90;;;;;;5053038;28;20210;-87
2021/07/24 03:18:18;;;;;;;21.63;15.55;;;15.90;99.90;;;;;;5072121;28;20209;-88
2021/07/24 03:20:46;;;;;;;19.27;14.18;;;15.90;99.90;;;;;;5072827;28;20253;-87
2021/07/24 03:23:13;;;;;;;15.23;12.70;;;15.90;99.90;;;;;;5073482;28;20205;-87
2021/07/24 03:25:42;;;;;;;19.30;14.18;;;15.90;99.90;;;;;;5072656;28;20252;-89
2021/07/24 03:28:09;;;;;;;16.42;13.45;;;15.90;99.90;;;;;;5073616;28;20206;-89
2021/07/24 03:30:38;;;;;;;17.55;14.30;;;15.90;99.90;;;;;;5071743;28;20196;-87
2021/07/24 03:33:04;;;;;;;17.02;14.48;;;15.80;99.90;;;;;;5061190;28;20201;-88
2021/07/24 03:35:31;;;;;;;17.47;13.60;;;15.90;99.90;;;;;;5052964;28;20206;-88
2021/07/24 03:38:04;;;;;;;18.00;13.57;;;15.90;99.90;;;;;;5053384;28;20210;-87
2021/07/24 03:40:31;;;;;;;18.08;13.98;;;15.80;99.90;;;;;;5072928;28;20217;-87
2021/07/24 03:42:59;;;;;;;19.60;15.10;;;15.90;99.90;;;;;;5072731;28;20206;-91
2021/07/24 03:45:25;;;;;;;22.08;14.05;;;15.90;99.90;;;;;;5069298;28;20220;-91
2021/07/24 03:47:52;;;;;;;23.27;14.85;;;15.80;99.90;;;;;;5052431;28;20214;-88
2021/07/24 03:50:19;;;;;;;18.67;14.32;;;15.80;99.90;;;;;;5053285;28;20252;-89
2021/07/24 03:52:46;;;;;;;19.15;14.68;;;15.90;99.90;;;;;;5052568;28;20208;-89
2021/07/24 03:55:15;;;;;;;20.75;15.40;;;15.80;99.90;;;;;;5053231;28;20198;-88
2021/07/24 03:57:42;;;;;;;18.45;14.77;;;15.80;99.90;;;;;;5052365;28;20214;-89
2021/07/24 04:00:10;;;;;;;20.30;14.75;;;15.80;99.90;;;;;;5052188;28;20206;-94
2021/07/24 04:02:38;;;;;;;19.50;14.63;;;15.80;99.90;;;;;;5051206;28;20230;-89
2021/07/24 04:05:06;;;;;;;20.15;15.00;;;15.80;99.90;;;;;;5072213;28;20220;-89
2021/07/24 04:07:34;;;;;;;20.85;15.40;;;15.90;99.90;;;;;;5072358;28;20207;-88
2021/07/24 04:10:02;;;;;;;22.63;15.00;;;15.90;99.90;;;;;;5072503;28;20236;-88
2021/07/24 04:12:31;;;;;;;21.30;15.75;;;15.90;99.90;;;;;;5073081;28;20244;-92
2021/07/24 04:14:59;;;;;;;17.83;14.95;;;15.90;99.90;;;;;;5069396;28;20205;-89
2021/07/24 04:17:26;;;;;;;21.17;14.90;;;15.90;99.90;;;;;;5052692;28;20202;-88
2021/07/24 04:19:55;;;;;;;20.13;14.15;;;15.90;99.90;;;;;;5057356;28;20201;-89
2021/07/24 04:22:23;;;;;;;23.73;14.85;;;16.00;99.90;;;;;;5093096;28;20315;-87
2021/07/24 04:24:49;;;;;;;19.75;14.38;;;15.90;99.90;;;;;;5061694;28;20251;-96
2021/07/24 04:27:16;;;;;;;19.35;14.50;;;16.00;99.90;;;;;;5052802;28;20209;-90
2021/07/24 04:29:45;;;;;;;20.75;14.10;;;16.10;99.90;;;;;;5053078;28;20201;-86
2021/07/24 04:32:11;;;;;;;18.10;14.68;;;16.10;99.90;;;;;;5053621;28;20289;-89
2021/07/24 04:34:38;;;;;;;20.52;14.40;;;16.10;99.90;;;;;;5053317;28;20712;-92
2021/07/24 04:37:05;;;;;;;17.50;14.00;;;16.10;99.90;;;;;;5054541;28;20194;-87
2021/07/24 04:39:32;;;;;;;17.88;13.93;;;16.20;99.90;;;;;;5054534;28;20202;-87
2021/07/24 04:41:59;;;;;;;17.92;13.98;;;16.20;99.90;;;;;;5054422;28;20221;-85
2021/07/24 04:44:26;;;;;;;20.67;13.93;;;16.20;99.90;;;;;;5064581;28;20292;-91
2021/07/24 04:46:54;;;;;;;18.15;13.93;;;16.20;99.90;;;;;;5074428;28;20228;-88
2021/07/24 04:49:21;;;;;;;16.73;13.48;;;16.20;99.90;;;;;;5074296;28;20231;-93
2021/07/24 04:51:48;;;;;;;17.20;13.43;;;16.30;99.90;;;;;;5072030;28;20508;-88
2021/07/24 04:54:15;;;;;;;19.98;13.77;;;16.30;99.90;;;;;;5068251;28;20506;-88
2021/07/24 04:56:42;;;;;;;19.00;14.18;;;16.40;99.90;;;;;;5060074;28;20198;-88
2021/07/24 04:59:10;;;;;;;19.00;13.30;;;16.50;99.90;;;;;;5065476;28;20208;-90
2021/07/24 05:01:37;;;;;;;17.55;12.77;;;16.50;99.90;;;;;;5056135;28;20828;-90
2021/07/24 05:04:06;;;;;;;15.85;12.80;;;16.60;99.90;;;;;;5065888;28;20219;-89
2021/07/24 05:06:32;;;;;;;18.60;13.27;;;16.70;99.90;;;;;;5072518;28;20276;-88
2021/07/24 05:08:59;;;;;;;16.08;11.85;;;16.70;99.90;;;;;;5066324;28;20212;-90
2021/07/24 05:11:26;;;;;;;16.63;13.10;;;16.80;99.90;;;;;;5051729;28;20198;-90
2021/07/24 05:13:53;;;;;;;13.73;11.68;;;16.80;99.90;;;;;;5050504;28;20202;-91
2021/07/24 05:16:20;;;;;;;17.58;13.25;;;16.90;99.90;;;;;;5050853;28;20202;-90
2021/07/24 05:18:47;;;;;;;16.25;11.95;;;17.00;99.90;;;;;;5050731;28;20509;-91
2021/07/24 05:21:18;;;;;;;15.77;11.75;;;17.10;99.90;;;;;;5051339;28;20233;-90
2021/07/24 05:23:45;;;;;;;15.10;11.07;;;17.10;99.90;;;;;;5050369;28;20190;-90
2021/07/24 05:26:15;;;;;;;16.08;11.85;;;17.20;99.90;;;;;;5051368;28;20602;-91
2021/07/24 05:28:42;;;;;;;16.95;11.82;;;17.20;99.90;;;;;;5050236;28;20201;-89
2021/07/24 05:31:16;;;;;;;13.60;10.50;;;17.30;99.90;;;;;;5050643;28;20206;-89
2021/07/24 05:33:43;;;;;;;12.15;10.27;;;17.40;99.90;;;;;;5048520;28;20217;-90
2021/07/24 05:36:10;;;;;;;14.02;11.30;;;17.40;99.90;;;;;;5046671;28;20201;-90
2021/07/24 05:38:39;;;;;;;13.73;11.18;;;17.40;99.90;;;;;;5045061;28;20199;-90
2021/07/24 05:41:06;;;;;;;15.93;11.63;;;17.40;99.90;;;;;;5048540;28;20210;-92
2021/07/24 05:43:33;;;;;;;12.82;10.73;;;17.50;99.90;;;;;;5049752;28;20198;-91
2021/07/24 05:46:01;;;;;;;17.80;12.43;;;17.50;99.90;;;;;;5053073;28;20198;-90
2021/07/24 05:48:27;;;;;;;13.68;10.70;;;17.60;99.90;;;;;;5071421;28;20266;-90
2021/07/24 05:50:55;;;;;;;12.85;10.75;;;17.70;99.90;;;;;;5068048;28;20216;-90
2021/07/24 05:53:22;;;;;;;16.15;11.65;;;17.80;99.90;;;;;;5066316;28;20224;-89
2021/07/24 05:55:50;;;;;;;13.50;9.88;;;17.90;99.90;;;;;;5068383;28;20198;-89
2021/07/24 05:58:17;;;;;;;15.38;10.90;;;18.00;99.90;;;;;;5056153;28;20202;-90
2021/07/24 06:00:44;;;;;;;15.23;11.10;;;18.10;99.90;;;;;;5050221;28;20198;-89
2021/07/24 06:03:11;;;;;;;12.93;11.00;;;18.30;99.90;;;;;;5050478;28;20891;-90
2021/07/24 06:05:38;;;;;;;12.48;10.35;;;18.30;99.90;;;;;;5057473;28;20213;-90
2021/07/24 06:08:05;;;;;;;11.18;10.00;;;18.30;99.90;;;;;;5070083;28;20189;-89
2021/07/24 06:10:32;;;;;;;13.30;10.05;;;18.40;99.90;;;;;;5069808;28;20239;-91
2021/07/24 06:13:01;;;;;;;13.85;10.27;;;18.50;99.90;;;;;;5067226;28;20201;-89
2021/07/24 06:15:28;;;;;;;11.02;9.70;;;18.70;99.90;;;;;;5066955;28;20280;-88
2021/07/24 06:17:54;;;;;;;10.75;9.63;;;18.80;99.90;;;;;;5057052;28;20233;-89
2021/07/24 06:20:21;;;;;;;13.88;10.23;;;19.00;99.90;;;;;;5051982;28;20248;-86
2021/07/24 06:22:48;;;;;;;12.57;9.98;;;19.30;99.90;;;;;;5069260;28;20229;-89
2021/07/24 06:25:16;;;;;;;14.07;10.18;;;19.60;99.90;;;;;;5069487;28;20240;-88
2021/07/24 06:27:43;;;;;;;12.48;8.93;;;19.90;99.90;;;;;;5069440;28;20284;-90
2021/07/24 06:30:13;;;;;;;10.10;8.93;;;20.10;99.90;;;;;;5070511;28;20194;-91
2021/07/24 06:32:40;;;;;;;9.57;8.57;;;20.20;99.90;;;;;;5068924;28;20220;-90
2021/07/24 06:35:07;;;;;;;11.65;9.52;;;20.10;99.90;;;;;;5059185;28;20272;-87
2021/07/24 06:37:34;;;;;;;11.02;8.80;;;20.00;99.90;;;;;;5049243;28;20213;-90
2021/07/24 06:40:01;;;;;;;10.30;9.10;;;20.10;99.90;;;;;;5047963;28;20194;-92
2021/07/24 06:42:27;;;;;;;9.95;8.95;;;20.20;99.90;;;;;;5048703;28;20230;-91
2021/07/24 06:44:54;;;;;;;10.50;8.68;;;20.20;99.90;;;;;;5049068;28;20205;-89
2021/07/24 06:47:23;;;;;;;11.20;9.32;;;20.30;99.90;;;;;;5049074;28;20558;-84
2021/07/24 06:49:50;;;;;;;13.23;10.10;;;20.40;99.90;;;;;;5049191;28;20200;-87
2021/07/24 06:52:16;;;;;;;12.70;10.55;;;20.30;99.90;;;;;;5049830;28;20544;-87
2021/07/24 06:54:43;;;;;;;12.60;9.50;;;20.40;99.90;;;;;;5049328;28;20209;-90
2021/07/24 06:57:10;;;;;;;14.13;9.38;;;20.40;99.90;;;;;;5050497;28;20193;-90
2021/07/24 06:59:37;;;;;;;9.35;8.45;;;20.50;99.90;;;;;;5050066;28;20241;-90
2021/07/24 07:02:06;;;;;;;10.43;8.95;;;20.50;99.90;;;;;;5051063;28;20230;-90
2021/07/24 07:04:34;;;;;;;11.77;9.13;;;20.50;99.90;;;;;;5052372;28;20198;-94
2021/07/24 07:07:01;;;;;;;10.30;9.30;;;20.70;99.90;;;;;;5055468;28;20676;-88
2021/07/24 07:09:28;;;;;;;10.32;9.23;;;20.80;99.90;;;;;;5055217;28;20629;-90
2021/07/24 07:15:12;;;;;;;10.48;8.25;;;21.00;99.90;;;;;;4994533;28;20269;-92
2021/07/24 07:17:39;;;;;;;9.15;8.23;;;21.20;99.90;;;;;;5053927;28;20217;-93
2021/07/24 07:20:10;;;;;;;8.73;7.43;;;21.30;99.90;;;;;;5053758;28;20213;-90
2021/07/24 07:22:37;;;;;;;10.75;8.30;;;21.50;99.90;;;;;;5053383;28;20229;-90
2021/07/24 07:25:05;;;;;;;8.85;7.78;;;21.60;99.90;;;;;;5053635;28;20241;-90
2021/07/24 07:27:32;;;;;;;9.95;8.93;;;21.80;99.90;;;;;;5052475;28;20202;-91
2021/07/24 07:29:58;;;;;;;8.77;7.82;;;21.80;99.90;;;;;;5067669;28;20597;-89
2021/07/24 07:32:25;;;;;;;10.15;9.13;;;21.80;99.90;;;;;;5055797;28;20194;-86
2021/07/24 07:34:53;;;;;;;9.57;8.23;;;21.70;99.90;;;;;;5052942;28;20852;-87
2021/07/24 07:37:22;;;;;;;10.43;8.60;;;21.90;99.90;;;;;;5051993;28;20202;-92
2021/07/24 07:39:49;;;;;;;10.45;8.52;;;21.90;99.90;;;;;;5052214;28;20202;-93
2021/07/24 07:42:16;;;;;;;9.95;8.85;;;21.90;99.90;;;;;;5052932;28;20232;-88
2021/07/24 07:44:43;;;;;;;10.57;8.38;;;21.90;99.90;;;;;;5055723;28;20607;-93
2021/07/24 07:47:10;;;;;;;10.43;8.65;;;22.00;99.90;;;;;;5073074;28;20231;-88
2021/07/24 07:49:37;;;;;;;8.02;7.22;;;22.00;99.90;;;;;;5072906;28;20205;-89
2021/07/24 07:52:04;;;;;;;8.93;7.90;;;22.10;99.90;;;;;;5073270;28;20198;-85
2021/07/24 07:54:33;;;;;;;10.60;9.27;;;22.20;99.90;;;;;;5063164;28;20208;-88
2021/07/24 07:57:00;;;;;;;10.77;9.07;;;22.20;99.90;;;;;;5052604;28;20202;-88
2021/07/24 07:59:27;;;;;;;9.70;8.57;;;22.20;99.90;;;;;;5056567;28;20210;-90
2021/07/24 08:01:54;;;;;;;11.93;8.52;;;22.20;99.90;;;;;;5072566;28;20240;-90
2021/07/24 08:04:21;;;;;;;10.73;8.85;;;22.00;99.90;;;;;;5048383;28;20206;-90
2021/07/24 08:06:48;;;;;;;9.88;8.63;;;22.00;99.90;;;;;;5049915;28;20214;-85
2021/07/24 08:09:15;;;;;;;10.75;8.90;;;21.90;99.90;;;;;;5051306;28;20205;-86
2021/07/24 08:11:43;;;;;;;10.45;9.20;;;22.00;99.90;;;;;;5087722;28;20205;-87
2021/07/24 08:14:10;;;;;;;13.48;10.63;;;22.10;99.90;;;;;;5091840;28;20499;-86
2021/07/24 08:16:36;;;;;;;13.52;8.85;;;22.20;99.90;;;;;;5104996;28;20210;-89
2021/07/24 08:19:03;;;;;;;10.93;9.15;;;22.10;99.90;;;;;;5097055;28;20291;-91
2021/07/24 08:21:30;;;;;;;12.40;10.43;;;22.10;99.90;;;;;;5058508;28;20202;-89
2021/07/24 08:23:57;;;;;;;12.55;10.55;;;22.20;99.90;;;;;;5053189;28;20317;-88
2021/07/24 08:26:24;;;;;;;11.68;10.25;;;22.30;99.90;;;;;;5053469;28;20205;-91
2021/07/24 08:28:52;;;;;;;11.18;8.45;;;22.30;99.90;;;;;;5053460;28;20202;-87
2021/07/24 08:31:19;;;;;;;11.82;10.52;;;22.40;99.90;;;;;;5052146;28;20202;-89
2021/07/24 08:33:46;;;;;;;10.85;9.75;;;22.50;99.90;;;;;;5057432;28;20213;-87
2021/07/24 08:36:12;;;;;;;13.75;10.13;;;22.60;99.90;;;;;;5071335;28;20209;-86
2021/07/24 08:38:39;;;;;;;12.10;10.50;;;22.60;99.90;;;;;;5071713;28;20229;-86
2021/07/24 08:41:06;;;;;;;12.02;9.80;;;22.60;99.90;;;;;;5067849;28;20217;-88
2021/07/24 08:43:33;;;;;;;11.02;9.95;;;22.80;99.90;;;;;;5050761;28;20233;-88
2021/07/24 08:46:01;;;;;;;11.88;9.48;;;22.80;99.90;;;;;;5052028;28;20202;-90
2021/07/24 08:48:29;;;;;;;9.50;8.50;;;23.00;99.90;;;;;;5050493;28;20590;-85
2021/07/24 08:50:58;;;;;;;12.35;10.10;;;23.20;99.90;;;;;;5051127;28;20760;-84
2021/07/24 08:53:27;;;;;;;11.93;10.73;;;23.40;99.90;;;;;;5051007;28;20206;-85
2021/07/24 08:56:08;;;;;;;12.50;10.98;;;23.40;99.90;;;;;;5050225;28;20492;-86
2021/07/24 08:58:36;;;;;;;12.73;10.88;;;23.40;99.90;;;;;;5050245;28;20194;-93
2021/07/24 09:01:04;;;;;;;12.40;11.02;;;23.40;99.90;;;;;;5051008;28;20279;-87
2021/07/24 09:03:34;;;;;;;12.15;10.93;;;23.30;99.90;;;;;;5070210;28;20633;-87
2021/07/24 09:06:01;;;;;;;12.93;11.63;;;23.30;99.90;;;;;;5061531;28;20210;-88
2021/07/24 09:08:29;;;;;;;11.27;10.13;;;23.20;99.90;;;;;;5051206;28;20256;-87
2021/07/24 09:10:57;;;;;;;14.10;11.82;;;23.10;99.90;;;;;;5050221;28;20493;-89
2021/07/24 09:13:25;;;;;;;13.15;11.75;;;23.10;99.90;;;;;;5051089;28;20273;-87
2021/07/24 09:15:53;;;;;;;13.68;11.77;;;23.10;99.90;;;;;;5065298;28;20223;-87
2021/07/24 09:18:23;;;;;;;14.50;13.00;;;23.10;99.90;;;;;;5068280;28;20210;-83
2021/07/24 09:20:50;;;;;;;15.43;13.32;;;23.20;99.90;;;;;;5050030;28;20186;-85
2021/07/24 09:23:32;;;;;;;16.17;13.15;;;23.10;99.90;;;;;;5050515;28;20248;-87
2021/07/24 09:26:00;;;;;;;14.73;12.05;;;23.20;99.90;;;;;;5050677;28;20294;-87
2021/07/24 09:28:27;;;;;;;19.30;14.55;;;23.30;99.90;;;;;;5050718;28;20260;-92
2021/07/24 09:30:54;;;;;;;15.18;13.55;;;23.40;99.90;;;;;;5050030;28;20217;-89
2021/07/24 09:33:22;;;;;;;14.82;13.32;;;23.30;99.90;;;;;;5050647;28;20198;-90
2021/07/24 09:35:52;;;;;;;15.80;13.68;;;23.30;99.90;;;;;;5051011;28;20209;-90
2021/07/24 09:38:28;;;;;;;15.88;14.18;;;23.10;99.90;;;;;;5062923;28;20207;-86
2021/07/24 09:40:55;;;;;;;18.27;13.68;;;22.80;99.90;;;;;;5055342;28;20213;-88
2021/07/24 09:43:36;;;;;;;15.98;13.65;;;22.90;99.90;;;;;;5052659;28;20232;-87
2021/07/24 09:46:21;;;;;;;14.18;12.68;;;22.90;99.90;;;;;;5052528;28;20189;-88
2021/07/24 09:48:51;;;;;;;14.35;12.82;;;22.90;99.90;;;;;;5061843;28;20488;-88
2021/07/24 09:51:33;;;;;;;14.80;12.43;;;23.00;99.90;;;;;;5071201;28;20202;-88
2021/07/24 09:54:00;;;;;;;15.05;13.45;;;23.20;99.90;;;;;;5061745;28;20201;-89
2021/07/24 09:56:39;;;;;;;16.48;13.20;;;23.20;99.90;;;;;;5051026;28;20200;-88
2021/07/24 09:59:18;;;;;;;14.98;12.50;;;23.20;99.90;;;;;;5052137;28;20861;-88
2021/07/24 10:01:52;;;;;;;17.00;13.93;;;23.30;99.90;;;;;;5059096;28;20229;-86
2021/07/24 10:04:25;;;;;;;15.35;13.75;;;23.40;99.90;;;;;;5056655;28;20529;-88
2021/07/24 10:06:56;;;;;;;15.75;13.70;;;23.40;99.90;;;;;;5052404;28;20194;-86
2021/07/24 10:09:27;;;;;;;16.70;13.00;;;23.50;99.90;;;;;;5052002;28;20214;-88
2021/07/24 10:11:55;;;;;;;13.43;11.43;;;23.50;99.90;;;;;;5051983;28;20217;-85
2021/07/24 10:14:22;;;;;;;17.40;14.88;;;23.60;99.90;;;;;;5049192;28;20205;-92
2021/07/24 10:16:50;;;;;;;20.33;15.23;;;23.60;99.90;;;;;;5048379;28;20205;-83
2021/07/24 10:19:17;;;;;;;17.35;15.27;;;23.50;99.90;;;;;;5049832;28;20202;-86
2021/07/24 10:21:46;;;;;;;19.25;15.02;;;23.40;99.90;;;;;;5048896;28;20205;-84
2021/07/24 10:24:13;;;;;;;18.00;15.02;;;23.40;99.90;;;;;;5050091;28;20244;-87
2021/07/24 10:26:47;;;;;;;14.52;12.30;;;23.40;99.90;;;;;;5069285;28;20754;-88
2021/07/24 10:29:18;;;;;;;14.55;12.95;;;23.50;99.90;;;;;;5070775;28;20235;-87
2021/07/24 10:31:52;;;;;;;16.88;14.75;;;23.60;99.90;;;;;;5049958;28;20692;-89
2021/07/24 10:34:25;;;;;;;21.10;15.38;;;23.70;99.90;;;;;;5049888;28;20195;-88
2021/07/24 10:36:54;;;;;;;16.20;14.20;;;23.70;99.90;;;;;;5049560;28;20213;-88
2021/07/24 10:39:22;;;;;;;13.05;11.70;;;23.80;99.90;;;;;;5052718;28;20205;-87
2021/07/24 10:41:50;;;;;;;16.75;14.40;;;23.90;99.90;;;;;;5064457;28;20224;-87
2021/07/24 10:44:37;;;;;;;15.82;13.10;;;24.10;99.90;;;;;;5053687;28;20228;-90
2021/07/24 10:47:19;;;;;;;16.85;14.43;;;24.30;99.90;;;;;;5068055;28;20304;-87
2021/07/24 10:49:59;;;;;;;16.60;13.98;;;24.30;99.90;;;;;;5073160;28;20249;-85
2021/07/24 10:52:42;;;;;;;15.85;14.18;;;24.40;99.90;;;;;;5059591;28;20212;-88
2021/07/24 10:55:15;;;;;;;16.10;13.95;;;24.50;99.90;;;;;;5052616;28;20205;-87
2021/07/24 10:58:05;;;;;;;21.20;14.23;;;24.50;99.90;;;;;;5054433;28;20209;-88
2021/07/24 11:00:34;;;;;;;16.02;14.43;;;24.70;99.90;;;;;;5079666;28;20198;-87
2021/07/24 11:03:01;;;;;;;16.17;14.48;;;24.50;99.90;;;;;;5072844;28;20232;-88
2021/07/24 11:05:29;;;;;;;17.67;14.77;;;24.70;99.90;;;;;;5072432;28;20209;-88
2021/07/24 11:07:58;;;;;;;13.05;11.75;;;24.60;99.90;;;;;;5070477;28;20241;-87
2021/07/24 11:10:25;;;;;;;16.50;14.48;;;24.70;99.90;;;;;;5052180;28;20494;-84
2021/07/24 11:12:52;;;;;;;19.55;13.85;;;24.70;99.90;;;;;;5052000;28;20508;-88
2021/07/24 11:15:20;;;;;;;16.33;14.15;;;24.60;99.90;;;;;;5071735;28;20217;-89
2021/07/24 11:18:22;;;;;;;15.52;13.93;;;24.60;99.90;;;;;;5072252;28;20209;-84
2021/07/24 11:20:49;;;;;;;18.15;14.40;;;24.60;99.90;;;;;;5071885;28;21077;-88
2021/07/24 11:23:17;;;;;;;17.02;14.57;;;24.60;99.90;;;;;;5072688;28;20224;-89
2021/07/24 11:25:47;;;;;;;16.45;14.23;;;24.70;99.90;;;;;;5071565;28;20641;-85
2021/07/24 11:28:22;;;;;;;16.75;14.10;;;24.50;99.90;;;;;;5072478;28;20859;-87
2021/07/24 11:30:59;;;;;;;17.27;14.88;;;24.50;99.90;;;;;;5070912;28;20324;-90
2021/07/24 11:33:30;;;;;;;16.33;14.68;;;24.50;99.90;;;;;;5051127;28;20226;-87
2021/07/24 11:36:03;;;;;;;17.42;15.40;;;24.50;99.90;;;;;;5050010;28;20202;-90
2021/07/24 11:38:32;;;;;;;15.88;14.18;;;24.50;99.90;;;;;;5050274;28;20255;-88
2021/07/24 11:41:04;;;;;;;19.85;15.32;;;24.50;99.90;;;;;;5051542;28;20914;-88
2021/07/24 11:43:31;;;;;;;15.02;13.48;;;24.40;99.90;;;;;;5052252;28;20783;-89
2021/07/24 11:46:06;;;;;;;17.52;14.23;;;24.40;99.90;;;;;;5057849;28;20209;-91
2021/07/24 11:48:35;;;;;;;20.50;14.27;;;24.30;99.90;;;;;;5071448;28;20924;-85
2021/07/24 11:51:05;;;;;;;19.63;14.05;;;24.10;99.90;;;;;;5071444;28;20262;-88
2021/07/24 11:53:34;;;;;;;17.15;15.23;;;24.20;99.90;;;;;;5071865;28;20249;-87
2021/07/24 11:56:01;;;;;;;18.80;14.90;;;24.10;99.90;;;;;;5071264;28;20315;-86
2021/07/24 11:58:28;;;;;;;12.77;11.48;;;24.10;99.90;;;;;;5053510;28;20221;-85
2021/07/24 12:00:56;;;;;;;13.75;12.23;;;24.10;99.90;;;;;;5055892;28;20255;-88
2021/07/24 12:03:25;;;;;;;17.65;13.60;;;24.10;99.90;;;;;;5071433;28;20255;-88
2021/07/24 12:05:53;;;;;;;16.48;14.48;;;24.00;99.90;;;;;;5071221;28;20233;-89
2021/07/24 12:08:23;;;;;;;14.82;13.30;;;24.00;99.90;;;;;;5062714;28;20624;-88
2021/07/24 12:10:52;;;;;;;15.35;13.63;;;24.00;99.90;;;;;;5051205;28;20202;-89
2021/07/24 12:13:21;;;;;;;17.80;14.35;;;24.00;99.90;;;;;;5050195;28;20237;-85
2021/07/24 12:15:57;;;;;;;14.60;13.10;;;23.90;99.90;;;;;;5047946;28;20202;-86
2021/07/24 12:18:24;;;;;;;18.92;15.10;;;23.90;99.90;;;;;;5064244;28;20218;-85
2021/07/24 12:20:51;;;;;;;15.50;13.18;;;23.90;99.90;;;;;;5068984;28;20201;-86
2021/07/24 12:23:21;;;;;;;12.73;11.38;;;23.90;99.90;;;;;;5070319;28;20205;-86
2021/07/24 12:26:11;;;;;;;15.57;13.43;;;23.90;99.90;;;;;;5061565;28;20522;-86
2021/07/24 12:28:38;;;;;;;15.55;13.77;;;23.90;99.90;;;;;;5049307;28;20205;-84
2021/07/24 12:31:22;;;;;;;15.35;13.07;;;24.00;99.90;;;;;;5047914;28;20222;-85
2021/07/24 12:33:50;;;;;;;16.85;14.73;;;24.00;99.90;;;;;;5046179;28;20218;-86
2021/07/24 12:36:19;;;;;;;16.73;14.93;;;24.00;99.90;;;;;;5048818;28;20210;-88
2021/07/24 12:38:46;;;;;;;16.00;13.70;;;23.90;99.90;;;;;;5057212;28;20205;-87
2021/07/24 12:41:14;;;;;;;17.48;15.50;;;23.90;99.90;;;;;;5069196;28;20212;-83
2021/07/24 12:43:43;;;;;;;15.60;13.70;;;23.90;99.90;;;;;;5051923;28;20253;-83